sensor_id;sensor_type;location;lat;lon;timestamp;pressure;altitude;pressure_sealevel;temperature;humidity
70314;BME280;71040;47.526;18.986;2023-07-22T00:01:05;99369.56;;;24.08;71.59
70314;BME280;71040;47.526;18.986;2023-07-22T00:06:10;99357.34;;;24.05;74.12
70314;BME280;71040;47.526;18.986;2023-07-22T00:11:13;99352.03;;;24.05;74.23
70314;BME280;71040;47.526;18.986;2023-07-22T00:16:15;99356.53;;;24.05;74.44
70314;BME280;71040;47.526;18.986;2023-07-22T00:21:16;99353.53;;;24.00;75.70
70314;BME280;71040;47.526;18.986;2023-07-22T00:26:17;99364.84;;;24.02;75.49
70314;BME280;71040;47.526;18.986;2023-07-22T00:31:20;99340.19;;;24.00;75.62
70314;BME280;71040;47.526;18.986;2023-07-22T00:36:20;99335.16;;;23.97;75.81
70314;BME280;71040;47.526;18.986;2023-07-22T00:41:21;99338.97;;;23.94;75.66
70314;BME280;71040;47.526;18.986;2023-07-22T00:46:22;99342.81;;;23.92;75.77
70314;BME280;71040;47.526;18.986;2023-07-22T00:51:25;99343.81;;;23.91;75.88
70314;BME280;71040;47.526;18.986;2023-07-22T00:56:28;99353.47;;;23.92;75.78
70314;BME280;71040;47.526;18.986;2023-07-22T01:01:32;99368.81;;;23.90;76.93
70314;BME280;71040;47.526;18.986;2023-07-22T01:06:35;99376.19;;;23.88;77.08
70314;BME280;71040;47.526;18.986;2023-07-22T01:11:36;99388.84;;;23.86;77.60
70314;BME280;71040;47.526;18.986;2023-07-22T01:16:42;99391.53;;;23.86;77.56
70314;BME280;71040;47.526;18.986;2023-07-22T01:21:46;99393.50;;;23.83;77.19
70314;BME280;71040;47.526;18.986;2023-07-22T01:26:47;99393.50;;;23.83;77.10
70314;BME280;71040;47.526;18.986;2023-07-22T01:31:53;99399.84;;;23.82;77.54
70314;BME280;71040;47.526;18.986;2023-07-22T01:36:54;99397.66;;;23.78;77.06
70314;BME280;71040;47.526;18.986;2023-07-22T01:41:54;99412.81;;;23.77;77.28
70314;BME280;71040;47.526;18.986;2023-07-22T01:46:57;99413.16;;;23.74;77.42
70314;BME280;71040;47.526;18.986;2023-07-22T01:51:57;99427.50;;;23.73;77.48
70314;BME280;71040;47.526;18.986;2023-07-22T01:56:58;99424.16;;;23.71;77.46
70314;BME280;71040;47.526;18.986;2023-07-22T02:02:02;99424.16;;;23.71;77.71
70314;BME280;71040;47.526;18.986;2023-07-22T02:07:02;99437.50;;;23.71;77.70
70314;BME280;71040;47.526;18.986;2023-07-22T02:12:03;99435.97;;;23.69;77.44
70314;BME280;71040;47.526;18.986;2023-07-22T02:17:04;99438.13;;;23.65;77.35
70314;BME280;71040;47.526;18.986;2023-07-22T02:22:05;99439.78;;;23.66;77.70
70314;BME280;71040;47.526;18.986;2023-07-22T02:27:07;99453.31;;;23.65;77.61
70314;BME280;71040;47.526;18.986;2023-07-22T02:32:08;99450.97;;;23.62;77.44
70314;BME280;71040;47.526;18.986;2023-07-22T02:37:09;99446.63;;;23.61;77.73
70314;BME280;71040;47.526;18.986;2023-07-22T02:42:11;99456.59;;;23.59;77.80
70314;BME280;71040;47.526;18.986;2023-07-22T02:47:12;99454.25;;;23.56;77.76
70314;BME280;71040;47.526;18.986;2023-07-22T02:52:12;99466.75;;;23.55;77.94
70314;BME280;71040;47.526;18.986;2023-07-22T02:57:13;99464.91;;;23.56;78.09
70314;BME280;71040;47.526;18.986;2023-07-22T03:02:13;99466.09;;;23.53;77.85
70314;BME280;71040;47.526;18.986;2023-07-22T03:07:14;99476.91;;;23.52;77.82
70314;BME280;71040;47.526;18.986;2023-07-22T03:12:17;99482.41;;;23.50;77.86
70314;BME280;71040;47.526;18.986;2023-07-22T03:17:20;99486.34;;;23.46;78.29
70314;BME280;71040;47.526;18.986;2023-07-22T03:22:25;99477.34;;;23.47;78.12
70314;BME280;71040;47.526;18.986;2023-07-22T03:27:26;99480.31;;;23.44;78.00
70314;BME280;71040;47.526;18.986;2023-07-22T03:32:28;99482.16;;;23.43;78.27
70314;BME280;71040;47.526;18.986;2023-07-22T03:37:29;99473.66;;;23.40;78.32
70314;BME280;71040;47.526;18.986;2023-07-22T03:42:32;99484.16;;;23.41;78.05
70314;BME280;71040;47.526;18.986;2023-07-22T03:47:32;99494.97;;;23.40;78.22
70314;BME280;71040;47.526;18.986;2023-07-22T03:52:32;99493.59;;;23.36;78.60
70314;BME280;71040;47.526;18.986;2023-07-22T03:57:33;99495.59;;;23.34;78.56
70314;BME280;71040;47.526;18.986;2023-07-22T04:02:43;99498.25;;;23.34;78.34
70314;BME280;71040;47.526;18.986;2023-07-22T04:07:44;99503.91;;;23.31;78.29
70314;BME280;71040;47.526;18.986;2023-07-22T04:12:45;99508.25;;;23.32;78.51
70314;BME280;71040;47.526;18.986;2023-07-22T04:17:47;99494.25;;;23.30;78.45
70314;BME280;71040;47.526;18.986;2023-07-22T04:22:48;99490.06;;;23.27;78.43
70314;BME280;71040;47.526;18.986;2023-07-22T04:27:50;99489.38;;;23.25;78.56
70314;BME280;71040;47.526;18.986;2023-07-22T04:32:51;99499.19;;;23.25;78.54
70314;BME280;71040;47.526;18.986;2023-07-22T04:37:53;99489.66;;;23.22;78.63
70314;BME280;71040;47.526;18.986;2023-07-22T04:42:54;99491.50;;;23.22;78.91
70314;BME280;71040;47.526;18.986;2023-07-22T04:47:54;99504.00;;;23.21;78.71
70314;BME280;71040;47.526;18.986;2023-07-22T04:52:55;99510.50;;;23.19;78.77
70314;BME280;71040;47.526;18.986;2023-07-22T04:57:57;99512.63;;;23.15;78.79
70314;BME280;71040;47.526;18.986;2023-07-22T05:03:00;99522.47;;;23.15;78.95
70314;BME280;71040;47.526;18.986;2023-07-22T05:08:03;99514.75;;;23.11;78.92
70314;BME280;71040;47.526;18.986;2023-07-22T05:13:04;99514.91;;;23.10;78.82
70314;BME280;71040;47.526;18.986;2023-07-22T05:18:04;99516.72;;;23.09;79.25
70314;BME280;71040;47.526;18.986;2023-07-22T05:23:05;99530.22;;;23.08;78.82
70314;BME280;71040;47.526;18.986;2023-07-22T05:28:05;99536.56;;;23.07;79.32
70314;BME280;71040;47.526;18.986;2023-07-22T05:33:06;99541.34;;;23.03;79.12
70314;BME280;71040;47.526;18.986;2023-07-22T05:38:12;99548.50;;;23.03;79.40
70314;BME280;71040;47.526;18.986;2023-07-22T05:43:17;99547.81;;;23.01;79.40
70314;BME280;71040;47.526;18.986;2023-07-22T05:48:18;99550.63;;;22.99;79.09
70314;BME280;71040;47.526;18.986;2023-07-22T05:53:24;99552.59;;;22.97;79.35
70314;BME280;71040;47.526;18.986;2023-07-22T05:58:24;99561.59;;;22.96;79.58
70314;BME280;71040;47.526;18.986;2023-07-22T06:03:27;99562.44;;;22.97;79.66
70314;BME280;71040;47.526;18.986;2023-07-22T06:08:30;99563.59;;;22.94;79.61
70314;BME280;71040;47.526;18.986;2023-07-22T06:13:30;99567.41;;;22.92;79.43
70314;BME280;71040;47.526;18.986;2023-07-22T06:18:34;99568.25;;;22.92;79.73
70314;BME280;71040;47.526;18.986;2023-07-22T06:23:34;99570.22;;;22.90;80.49
70314;BME280;71040;47.526;18.986;2023-07-22T06:28:37;99567.53;;;22.90;80.31
70314;BME280;71040;47.526;18.986;2023-07-22T06:33:39;99566.84;;;22.88;80.99
70314;BME280;71040;47.526;18.986;2023-07-22T06:38:40;99575.69;;;22.89;82.00
70314;BME280;71040;47.526;18.986;2023-07-22T06:43:43;99575.69;;;22.89;82.62
70314;BME280;71040;47.526;18.986;2023-07-22T06:48:43;99575.41;;;22.92;82.92
70314;BME280;71040;47.526;18.986;2023-07-22T06:53:43;99572.59;;;22.93;83.31
70314;BME280;71040;47.526;18.986;2023-07-22T06:58:44;99573.28;;;22.95;83.33
70314;BME280;71040;47.526;18.986;2023-07-22T07:03:44;99588.09;;;22.98;83.53
70314;BME280;71040;47.526;18.986;2023-07-22T07:08:47;99587.13;;;22.99;83.85
70314;BME280;71040;47.526;18.986;2023-07-22T07:13:49;99599.31;;;23.01;83.79
70314;BME280;71040;47.526;18.986;2023-07-22T07:18:52;99602.97;;;23.00;83.79
70314;BME280;71040;47.526;18.986;2023-07-22T07:23:53;99609.44;;;22.98;84.21
70314;BME280;71040;47.526;18.986;2023-07-22T07:28:56;99615.59;;;22.98;83.90
70314;BME280;71040;47.526;18.986;2023-07-22T07:33:57;99629.91;;;22.97;84.12
70314;BME280;71040;47.526;18.986;2023-07-22T07:38:57;99628.94;;;22.98;83.80
70314;BME280;71040;47.526;18.986;2023-07-22T07:43:57;99630.75;;;22.98;83.96
70314;BME280;71040;47.526;18.986;2023-07-22T07:48:59;99636.94;;;22.98;83.61
70314;BME280;71040;47.526;18.986;2023-07-22T07:54:03;99645.91;;;22.97;83.71
70314;BME280;71040;47.526;18.986;2023-07-22T07:59:04;99653.06;;;22.97;83.50
70314;BME280;71040;47.526;18.986;2023-07-22T08:04:05;99655.72;;;22.97;83.54
70314;BME280;71040;47.526;18.986;2023-07-22T08:09:06;99659.94;;;22.99;83.32
70314;BME280;71040;47.526;18.986;2023-07-22T08:14:09;99667.78;;;23.01;83.35
70314;BME280;71040;47.526;18.986;2023-07-22T08:19:11;99673.13;;;23.01;83.81
70314;BME280;71040;47.526;18.986;2023-07-22T08:24:14;99673.97;;;23.01;83.26
70314;BME280;71040;47.526;18.986;2023-07-22T08:29:14;99689.66;;;23.04;83.20
70314;BME280;71040;47.526;18.986;2023-07-22T08:34:15;99681.66;;;23.04;82.99
70314;BME280;71040;47.526;18.986;2023-07-22T08:45:01;99689.38;;;23.07;82.98
70314;BME280;71040;47.526;18.986;2023-07-22T08:50:05;99697.88;;;23.11;82.84
70314;BME280;71040;47.526;18.986;2023-07-22T08:55:06;99708.41;;;23.13;82.85
70314;BME280;71040;47.526;18.986;2023-07-22T09:00:11;99709.94;;;23.15;82.79
70314;BME280;71040;47.526;18.986;2023-07-22T09:05:17;99709.66;;;23.18;82.49
70314;BME280;71040;47.526;18.986;2023-07-22T09:10:21;99712.13;;;23.20;82.50
70314;BME280;71040;47.526;18.986;2023-07-22T09:15:21;99722.66;;;23.21;82.21
70314;BME280;71040;47.526;18.986;2023-07-22T09:26:11;99732.75;;;23.27;82.25
70314;BME280;71040;47.526;18.986;2023-07-22T09:31:11;99728.09;;;23.29;82.03
70314;BME280;71040;47.526;18.986;2023-07-22T09:36:14;99724.28;;;23.32;82.12
70314;BME280;71040;47.526;18.986;2023-07-22T09:41:18;99722.31;;;23.34;81.87
70314;BME280;71040;47.526;18.986;2023-07-22T09:46:31;99713.31;;;23.35;81.57
70314;BME280;71040;47.526;18.986;2023-07-22T09:51:40;99695.88;;;23.40;81.54
70314;BME280;71040;47.526;18.986;2023-07-22T09:56:49;99690.41;;;23.42;81.55
70314;BME280;71040;47.526;18.986;2023-07-22T10:01:50;99690.06;;;23.45;81.12
70314;BME280;71040;47.526;18.986;2023-07-22T10:06:55;99695.84;;;23.50;80.82
70314;BME280;71040;47.526;18.986;2023-07-22T10:11:58;99713.38;;;23.53;80.84
70314;BME280;71040;47.526;18.986;2023-07-22T10:17:02;99718.25;;;23.57;80.77
70314;BME280;71040;47.526;18.986;2023-07-22T10:22:04;99710.94;;;23.59;80.71
70314;BME280;71040;47.526;18.986;2023-07-22T10:27:06;99724.81;;;23.63;81.21
70314;BME280;71040;47.526;18.986;2023-07-22T10:32:07;99736.00;;;23.66;80.74
70314;BME280;71040;47.526;18.986;2023-07-22T10:37:09;99734.88;;;23.69;80.55
70314;BME280;71040;47.526;18.986;2023-07-22T10:42:23;99745.25;;;23.72;80.65
70314;BME280;71040;47.526;18.986;2023-07-22T10:47:34;99730.75;;;23.74;80.55
70314;BME280;71040;47.526;18.986;2023-07-22T10:52:41;99716.94;;;23.79;80.06
70314;BME280;71040;47.526;18.986;2023-07-22T10:57:53;99706.09;;;23.80;79.86
70314;BME280;71040;47.526;18.986;2023-07-22T11:03:10;99705.50;;;23.87;79.94
70314;BME280;71040;47.526;18.986;2023-07-22T11:08:11;99715.03;;;23.89;79.68
70314;BME280;71040;47.526;18.986;2023-07-22T11:13:14;99704.03;;;23.92;79.79
70314;BME280;71040;47.526;18.986;2023-07-22T11:18:17;99705.41;;;23.96;79.73
70314;BME280;71040;47.526;18.986;2023-07-22T11:23:17;99702.25;;;24.01;79.44
70314;BME280;71040;47.526;18.986;2023-07-22T11:28:20;99707.31;;;24.04;79.49
70314;BME280;71040;47.526;18.986;2023-07-22T11:33:23;99699.00;;;24.07;79.11
70314;BME280;71040;47.526;18.986;2023-07-22T11:38:24;99689.00;;;24.09;79.17
70314;BME280;71040;47.526;18.986;2023-07-22T11:43:24;99693.00;;;24.13;78.96
70314;BME280;71040;47.526;18.986;2023-07-22T11:48:24;99678.34;;;24.17;78.74
70314;BME280;71040;47.526;18.986;2023-07-22T11:53:28;99688.72;;;24.20;78.83
70314;BME280;71040;47.526;18.986;2023-07-22T11:58:28;99687.44;;;24.24;78.96
70314;BME280;71040;47.526;18.986;2023-07-22T12:03:33;99678.28;;;24.27;78.69
70314;BME280;71040;47.526;18.986;2023-07-22T12:08:34;99665.59;;;24.29;78.73
70314;BME280;71040;47.526;18.986;2023-07-22T12:13:36;99678.50;;;24.33;78.77
70314;BME280;71040;47.526;18.986;2023-07-22T12:18:44;99667.47;;;24.36;78.73
70314;BME280;71040;47.526;18.986;2023-07-22T12:23:45;99671.00;;;24.37;78.60
70314;BME280;71040;47.526;18.986;2023-07-22T12:28:46;99669.53;;;24.42;78.09
70314;BME280;71040;47.526;18.986;2023-07-22T12:33:46;99657.69;;;24.45;78.30
70314;BME280;71040;47.526;18.986;2023-07-22T12:38:47;99668.88;;;24.48;78.20
70314;BME280;71040;47.526;18.986;2023-07-22T12:43:47;99666.75;;;24.52;78.10
70314;BME280;71040;47.526;18.986;2023-07-22T12:48:51;99657.56;;;24.54;77.91
70314;BME280;71040;47.526;18.986;2023-07-22T12:53:52;99663.75;;;24.55;78.13
70314;BME280;71040;47.526;18.986;2023-07-22T12:58:52;99657.22;;;24.58;77.53
70314;BME280;71040;47.526;18.986;2023-07-22T13:03:58;99655.25;;;24.60;77.47
70314;BME280;71040;47.526;18.986;2023-07-22T13:09:04;99642.56;;;24.62;77.56
70314;BME280;71040;47.526;18.986;2023-07-22T13:14:04;99654.78;;;24.64;77.54
70314;BME280;71040;47.526;18.986;2023-07-22T13:19:07;99645.75;;;24.65;77.41
70314;BME280;71040;47.526;18.986;2023-07-22T13:24:07;99638.22;;;24.61;77.68
70314;BME280;71040;47.526;18.986;2023-07-22T13:29:08;99640.09;;;24.68;77.45
70314;BME280;71040;47.526;18.986;2023-07-22T13:34:09;99638.06;;;24.70;77.08
70314;BME280;71040;47.526;18.986;2023-07-22T13:39:09;99641.44;;;24.72;77.07
70314;BME280;71040;47.526;18.986;2023-07-22T13:44:09;99644.94;;;24.73;76.80
70314;BME280;71040;47.526;18.986;2023-07-22T13:49:12;99644.78;;;24.74;76.83
70314;BME280;71040;47.526;18.986;2023-07-22T13:54:13;99648.13;;;24.76;77.06
70314;BME280;71040;47.526;18.986;2023-07-22T13:59:13;99645.31;;;24.78;76.69
70314;BME280;71040;47.526;18.986;2023-07-22T14:04:18;99650.66;;;24.78;76.90
70314;BME280;71040;47.526;18.986;2023-07-22T14:09:18;99643.31;;;24.80;76.92
70314;BME280;71040;47.526;18.986;2023-07-22T14:14:24;99654.66;;;24.82;77.03
70314;BME280;71040;47.526;18.986;2023-07-22T14:19:33;99636.78;;;24.82;76.61
70314;BME280;71040;47.526;18.986;2023-07-22T14:24:34;99633.94;;;24.84;76.77
70314;BME280;71040;47.526;18.986;2023-07-22T14:29:41;99628.59;;;24.84;76.28
70314;BME280;71040;47.526;18.986;2023-07-22T14:34:42;99621.44;;;24.84;76.62
70314;BME280;71040;47.526;18.986;2023-07-22T14:39:42;99630.13;;;24.86;76.43
70314;BME280;71040;47.526;18.986;2023-07-22T14:44:43;99622.94;;;24.87;76.02
70314;BME280;71040;47.526;18.986;2023-07-22T14:49:45;99629.13;;;24.87;75.93
70314;BME280;71040;47.526;18.986;2023-07-22T14:54:47;99608.56;;;24.88;76.17
70314;BME280;71040;47.526;18.986;2023-07-22T14:59:47;99597.88;;;24.88;76.04
70314;BME280;71040;47.526;18.986;2023-07-22T15:04:51;99611.09;;;24.89;75.84
70314;BME280;71040;47.526;18.986;2023-07-22T15:09:52;99616.28;;;24.91;75.71
70314;BME280;71040;47.526;18.986;2023-07-22T15:14:58;99618.94;;;24.91;75.64
70314;BME280;71040;47.526;18.986;2023-07-22T15:20:00;99604.75;;;24.90;75.76
70314;BME280;71040;47.526;18.986;2023-07-22T15:25:08;99593.06;;;24.92;75.90
70314;BME280;71040;47.526;18.986;2023-07-22T15:30:09;99597.72;;;24.89;75.50
70314;BME280;71040;47.526;18.986;2023-07-22T15:35:09;99602.75;;;24.93;75.24
70314;BME280;71040;47.526;18.986;2023-07-22T15:40:15;99617.78;;;24.94;75.16
70314;BME280;71040;47.526;18.986;2023-07-22T15:45:18;99626.66;;;24.94;75.15
70314;BME280;71040;47.526;18.986;2023-07-22T15:50:23;99628.34;;;24.95;75.12
70314;BME280;71040;47.526;18.986;2023-07-22T15:55:23;99624.81;;;24.95;75.18
70314;BME280;71040;47.526;18.986;2023-07-22T16:00:24;99617.63;;;24.95;74.88
70314;BME280;71040;47.526;18.986;2023-07-22T16:05:24;99615.81;;;24.96;74.94
70314;BME280;71040;47.526;18.986;2023-07-22T16:10:27;99622.97;;;24.95;75.28
70314;BME280;71040;47.526;18.986;2023-07-22T16:15:30;99612.13;;;24.97;74.86
70314;BME280;71040;47.526;18.986;2023-07-22T16:20:30;99605.94;;;24.96;74.79
70314;BME280;71040;47.526;18.986;2023-07-22T16:25:31;99601.44;;;24.97;75.16
70314;BME280;71040;47.526;18.986;2023-07-22T16:30:32;99596.94;;;24.97;74.91
70314;BME280;71040;47.526;18.986;2023-07-22T16:35:32;99588.91;;;24.97;75.02
70314;BME280;71040;47.526;18.986;2023-07-22T16:40:35;99589.91;;;24.96;74.72
70314;BME280;71040;47.526;18.986;2023-07-22T16:45:38;99605.78;;;24.98;74.83
70314;BME280;71040;47.526;18.986;2023-07-22T16:50:40;99604.78;;;24.99;74.85
70314;BME280;71040;47.526;18.986;2023-07-22T16:55:41;99595.25;;;24.96;75.09
70314;BME280;71040;47.526;18.986;2023-07-22T17:00:41;99612.97;;;24.97;74.77
70314;BME280;71040;47.526;18.986;2023-07-22T17:05:42;99614.66;;;24.98;75.20
70314;BME280;71040;47.526;18.986;2023-07-22T17:10:42;99611.97;;;24.98;74.82
70314;BME280;71040;47.526;18.986;2023-07-22T17:15:43;99615.47;;;24.99;75.31
70314;BME280;71040;47.526;18.986;2023-07-22T17:20:45;99603.09;;;24.98;74.94
70314;BME280;71040;47.526;18.986;2023-07-22T17:25:49;99609.28;;;24.98;74.72
70314;BME280;71040;47.526;18.986;2023-07-22T17:30:52;99612.81;;;24.99;75.20
70314;BME280;71040;47.526;18.986;2023-07-22T17:35:57;99601.28;;;24.98;74.99
70314;BME280;71040;47.526;18.986;2023-07-22T17:40:57;99611.13;;;24.98;75.29
70314;BME280;71040;47.526;18.986;2023-07-22T17:45:58;99610.97;;;24.99;75.20
70314;BME280;71040;47.526;18.986;2023-07-22T17:50:58;99601.28;;;24.98;75.04
70314;BME280;71040;47.526;18.986;2023-07-22T17:55:58;99613.66;;;24.99;75.12
70314;BME280;71040;47.526;18.986;2023-07-22T18:01:01;99621.66;;;24.99;75.11
70314;BME280;71040;47.526;18.986;2023-07-22T18:06:02;99625.34;;;24.98;75.49
70314;BME280;71040;47.526;18.986;2023-07-22T18:11:03;99622.81;;;24.97;75.23
70314;BME280;71040;47.526;18.986;2023-07-22T18:16:08;99619.16;;;24.98;75.43
70314;BME280;71040;47.526;18.986;2023-07-22T18:21:08;99629.00;;;24.97;75.02
70314;BME280;71040;47.526;18.986;2023-07-22T18:26:09;99645.91;;;24.98;75.32
70314;BME280;71040;47.526;18.986;2023-07-22T18:31:09;99662.09;;;24.96;75.52
70314;BME280;71040;47.526;18.986;2023-07-22T18:36:09;99660.25;;;24.97;75.89
70314;BME280;71040;47.526;18.986;2023-07-22T18:41:11;99654.91;;;24.97;75.71
70314;BME280;71040;47.526;18.986;2023-07-22T18:46:16;99652.41;;;24.95;75.36
70314;BME280;71040;47.526;18.986;2023-07-22T18:51:21;99667.44;;;24.96;75.86
70314;BME280;71040;47.526;18.986;2023-07-22T18:56:22;99687.16;;;24.95;75.64
70314;BME280;71040;47.526;18.986;2023-07-22T19:01:22;99698.16;;;24.92;75.63
70314;BME280;71040;47.526;18.986;2023-07-22T19:06:22;99706.03;;;24.94;75.79
70314;BME280;71040;47.526;18.986;2023-07-22T19:11:23;99710.53;;;24.93;75.83
70314;BME280;71040;47.526;18.986;2023-07-22T19:16:25;99728.28;;;24.94;75.81
70314;BME280;71040;47.526;18.986;2023-07-22T19:21:25;99733.78;;;24.93;76.11
70314;BME280;71040;47.526;18.986;2023-07-22T19:26:28;99721.41;;;24.92;76.11
70314;BME280;71040;47.526;18.986;2023-07-22T19:31:31;99717.88;;;24.91;75.97
70314;BME280;71040;47.526;18.986;2023-07-22T19:36:36;99714.38;;;24.90;76.00
70314;BME280;71040;47.526;18.986;2023-07-22T19:41:36;99724.22;;;24.90;75.73
70314;BME280;71040;47.526;18.986;2023-07-22T19:46:39;99732.41;;;24.88;76.13
70314;BME280;71040;47.526;18.986;2023-07-22T19:51:40;99728.91;;;24.88;75.89
70314;BME280;71040;47.526;18.986;2023-07-22T19:56:42;99730.72;;;24.87;75.64
70314;BME280;71040;47.526;18.986;2023-07-22T20:01:43;99729.03;;;24.86;75.74
70314;BME280;71040;47.526;18.986;2023-07-22T20:06:43;99730.88;;;24.86;75.83
70314;BME280;71040;47.526;18.986;2023-07-22T20:11:46;99744.41;;;24.84;75.92
70314;BME280;71040;47.526;18.986;2023-07-22T20:16:46;99751.59;;;24.84;75.85
70314;BME280;71040;47.526;18.986;2023-07-22T20:21:49;99757.09;;;24.82;76.33
70314;BME280;71040;47.526;18.986;2023-07-22T20:26:49;99772.13;;;24.83;75.79
70314;BME280;71040;47.526;18.986;2023-07-22T20:31:52;99776.66;;;24.83;75.86
70314;BME280;71040;47.526;18.986;2023-07-22T20:36:53;99772.28;;;24.82;75.87
70314;BME280;71040;47.526;18.986;2023-07-22T20:41:53;99774.13;;;24.81;76.41
70314;BME280;71040;47.526;18.986;2023-07-22T20:46:53;99768.97;;;24.80;76.11
70314;BME280;71040;47.526;18.986;2023-07-22T20:51:54;99761.09;;;24.78;76.40
70314;BME280;71040;47.526;18.986;2023-07-22T20:56:54;99748.72;;;24.77;76.09
70314;BME280;71040;47.526;18.986;2023-07-22T21:01:57;99762.09;;;24.77;76.35
70314;BME280;71040;47.526;18.986;2023-07-22T21:06:57;99757.75;;;24.76;76.35
70314;BME280;71040;47.526;18.986;2023-07-22T21:11:58;99765.91;;;24.75;76.29
70314;BME280;71040;47.526;18.986;2023-07-22T21:17:01;99770.41;;;24.74;76.43
70314;BME280;71040;47.526;18.986;2023-07-22T21:22:01;99772.41;;;24.72;76.09
70314;BME280;71040;47.526;18.986;2023-07-22T21:27:03;99777.75;;;24.72;76.07
70314;BME280;71040;47.526;18.986;2023-07-22T21:38:00;99783.59;;;24.68;76.26
70314;BME280;71040;47.526;18.986;2023-07-22T21:43:02;99780.94;;;24.68;75.92
70314;BME280;71040;47.526;18.986;2023-07-22T21:48:02;99779.94;;;24.69;76.38
70314;BME280;71040;47.526;18.986;2023-07-22T21:53:07;99780.94;;;24.68;76.27
70314;BME280;71040;47.526;18.986;2023-07-22T21:58:07;99778.41;;;24.66;76.06
70314;BME280;71040;47.526;18.986;2023-07-22T22:03:10;99788.25;;;24.66;76.23
70314;BME280;71040;47.526;18.986;2023-07-22T22:08:11;99789.25;;;24.65;76.17
70314;BME280;71040;47.526;18.986;2023-07-22T22:13:12;99790.25;;;24.64;76.18
70314;BME280;71040;47.526;18.986;2023-07-22T22:18:12;99786.72;;;24.63;76.15
70314;BME280;71040;47.526;18.986;2023-07-22T22:23:24;99784.22;;;24.62;75.75
70314;BME280;71040;47.526;18.986;2023-07-22T22:28:31;99787.88;;;24.61;75.67
70314;BME280;71040;47.526;18.986;2023-07-22T22:33:31;99795.19;;;24.59;75.95
70314;BME280;71040;47.526;18.986;2023-07-22T22:38:34;99801.38;;;24.59;75.93
70314;BME280;71040;47.526;18.986;2023-07-22T22:43:34;99798.88;;;24.58;75.78
70314;BME280;71040;47.526;18.986;2023-07-22T22:48:37;99803.56;;;24.56;75.76
70314;BME280;71040;47.526;18.986;2023-07-22T22:53:40;99810.75;;;24.55;75.85
70314;BME280;71040;47.526;18.986;2023-07-22T22:58:40;99812.56;;;24.54;75.86
70314;BME280;71040;47.526;18.986;2023-07-22T23:03:43;99814.56;;;24.52;75.87
70314;BME280;71040;47.526;18.986;2023-07-22T23:08:44;99817.38;;;24.51;75.46
70314;BME280;71040;47.526;18.986;2023-07-22T23:13:47;99820.19;;;24.49;75.62
70314;BME280;71040;47.526;18.986;2023-07-22T23:18:55;99829.06;;;24.50;75.67
70314;BME280;71040;47.526;18.986;2023-07-22T23:23:55;99831.88;;;24.48;75.46
70314;BME280;71040;47.526;18.986;2023-07-22T23:28:58;99827.53;;;24.47;75.20
70314;BME280;71040;47.526;18.986;2023-07-22T23:33:58;99825.84;;;24.46;75.38
70314;BME280;71040;47.526;18.986;2023-07-22T23:39:01;99822.66;;;24.43;75.59
70314;BME280;71040;47.526;18.986;2023-07-22T23:44:04;99826.19;;;24.43;75.25
70314;BME280;71040;47.526;18.986;2023-07-22T23:49:14;99826.34;;;24.42;75.43
70314;BME280;71040;47.526;18.986;2023-07-22T23:54:15;99831.81;;;24.40;75.63
70314;BME280;71040;47.526;18.986;2023-07-22T23:59:20;99833.81;;;24.38;75.65
